sensor_id;sensor_type;location;lat;lon;timestamp;P1;durP1;ratioP1;P2;durP2;ratioP2
68144;SDS011;55400;51.824;-0.196;2023-04-23T00:00:43;14.10;;;9.30;;
68144;SDS011;55400;51.824;-0.196;2023-04-23T00:04:50;12.80;;;8.40;;
68144;SDS011;55400;51.824;-0.196;2023-04-23T00:08:43;14.80;;;8.60;;
68144;SDS011;55400;51.824;-0.196;2023-04-23T00:12:43;12.60;;;8.10;;
68144;SDS011;55400;51.824;-0.196;2023-04-23T00:16:43;11.50;;;7.90;;
68144;SDS011;55400;51.824;-0.196;2023-04-23T00:20:42;10.50;;;7.50;;
68144;SDS011;55400;51.824;-0.196;2023-04-23T00:24:42;14.30;;;8.20;;
68144;SDS011;55400;51.824;-0.196;2023-04-23T00:28:42;11.10;;;7.30;;
68144;SDS011;55400;51.824;-0.196;2023-04-23T00:32:43;10.30;;;7.10;;
68144;SDS011;55400;51.824;-0.196;2023-04-23T00:36:42;8.40;;;6.00;;
68144;SDS011;55400;51.824;-0.196;2023-04-23T00:40:42;10.00;;;6.50;;
68144;SDS011;55400;51.824;-0.196;2023-04-23T00:44:43;9.70;;;6.30;;
68144;SDS011;55400;51.824;-0.196;2023-04-23T00:48:43;10.90;;;5.90;;
68144;SDS011;55400;51.824;-0.196;2023-04-23T00:52:42;8.30;;;5.70;;
68144;SDS011;55400;51.824;-0.196;2023-04-23T00:56:43;9.00;;;5.50;;
68144;SDS011;55400;51.824;-0.196;2023-04-23T01:00:45;8.60;;;5.10;;
68144;SDS011;55400;51.824;-0.196;2023-04-23T01:04:43;11.50;;;4.70;;
68144;SDS011;55400;51.824;-0.196;2023-04-23T01:08:44;6.80;;;4.30;;
68144;SDS011;55400;51.824;-0.196;2023-04-23T01:16:43;8.60;;;4.00;;
68144;SDS011;55400;51.824;-0.196;2023-04-23T01:20:42;5.90;;;3.00;;
68144;SDS011;55400;51.824;-0.196;2023-04-23T01:24:43;7.40;;;3.00;;
68144;SDS011;55400;51.824;-0.196;2023-04-23T01:28:43;5.70;;;2.80;;
68144;SDS011;55400;51.824;-0.196;2023-04-23T01:32:43;10.50;;;2.90;;
68144;SDS011;55400;51.824;-0.196;2023-04-23T01:36:43;6.80;;;2.30;;
68144;SDS011;55400;51.824;-0.196;2023-04-23T01:40:43;6.60;;;2.80;;
68144;SDS011;55400;51.824;-0.196;2023-04-23T01:48:43;8.80;;;2.40;;
68144;SDS011;55400;51.824;-0.196;2023-04-23T01:52:43;9.40;;;2.60;;
68144;SDS011;55400;51.824;-0.196;2023-04-23T02:00:43;7.80;;;2.90;;
68144;SDS011;55400;51.824;-0.196;2023-04-23T02:04:43;11.40;;;2.60;;
68144;SDS011;55400;51.824;-0.196;2023-04-23T02:08:43;10.60;;;2.90;;
68144;SDS011;55400;51.824;-0.196;2023-04-23T02:12:44;11.10;;;2.90;;
68144;SDS011;55400;51.824;-0.196;2023-04-23T02:16:43;10.40;;;2.20;;
68144;SDS011;55400;51.824;-0.196;2023-04-23T02:20:43;12.20;;;2.50;;
68144;SDS011;55400;51.824;-0.196;2023-04-23T02:32:43;8.20;;;2.30;;
68144;SDS011;55400;51.824;-0.196;2023-04-23T02:36:43;7.30;;;2.10;;
68144;SDS011;55400;51.824;-0.196;2023-04-23T02:44:43;12.00;;;2.30;;
68144;SDS011;55400;51.824;-0.196;2023-04-23T02:48:43;7.20;;;2.10;;
68144;SDS011;55400;51.824;-0.196;2023-04-23T02:52:43;13.20;;;2.80;;
68144;SDS011;55400;51.824;-0.196;2023-04-23T02:56:43;7.30;;;2.60;;
68144;SDS011;55400;51.824;-0.196;2023-04-23T03:00:43;11.90;;;2.50;;
68144;SDS011;55400;51.824;-0.196;2023-04-23T03:04:43;9.40;;;2.60;;
68144;SDS011;55400;51.824;-0.196;2023-04-23T03:08:43;10.50;;;2.70;;
68144;SDS011;55400;51.824;-0.196;2023-04-23T03:12:43;12.60;;;2.60;;
68144;SDS011;55400;51.824;-0.196;2023-04-23T03:16:43;6.40;;;2.20;;
68144;SDS011;55400;51.824;-0.196;2023-04-23T03:20:43;10.70;;;2.40;;
68144;SDS011;55400;51.824;-0.196;2023-04-23T03:24:43;8.00;;;2.40;;
68144;SDS011;55400;51.824;-0.196;2023-04-23T03:32:43;8.60;;;2.80;;
68144;SDS011;55400;51.824;-0.196;2023-04-23T03:36:43;11.30;;;2.60;;
68144;SDS011;55400;51.824;-0.196;2023-04-23T03:44:43;8.60;;;2.40;;
68144;SDS011;55400;51.824;-0.196;2023-04-23T03:48:43;11.40;;;2.50;;
68144;SDS011;55400;51.824;-0.196;2023-04-23T03:52:43;11.40;;;2.60;;
68144;SDS011;55400;51.824;-0.196;2023-04-23T03:56:43;7.50;;;2.40;;
68144;SDS011;55400;51.824;-0.196;2023-04-23T04:00:44;8.90;;;2.30;;
68144;SDS011;55400;51.824;-0.196;2023-04-23T04:04:43;8.10;;;2.10;;
68144;SDS011;55400;51.824;-0.196;2023-04-23T04:08:43;7.10;;;2.20;;
68144;SDS011;55400;51.824;-0.196;2023-04-23T04:12:43;7.70;;;2.40;;
68144;SDS011;55400;51.824;-0.196;2023-04-23T04:16:43;8.80;;;2.40;;
68144;SDS011;55400;51.824;-0.196;2023-04-23T04:24:43;8.90;;;2.30;;
68144;SDS011;55400;51.824;-0.196;2023-04-23T04:28:43;8.70;;;2.40;;
68144;SDS011;55400;51.824;-0.196;2023-04-23T04:32:43;8.20;;;2.50;;
68144;SDS011;55400;51.824;-0.196;2023-04-23T04:36:43;12.10;;;2.70;;
68144;SDS011;55400;51.824;-0.196;2023-04-23T04:40:43;10.50;;;2.60;;
68144;SDS011;55400;51.824;-0.196;2023-04-23T04:48:44;7.50;;;2.30;;
68144;SDS011;55400;51.824;-0.196;2023-04-23T04:52:43;7.30;;;2.10;;
68144;SDS011;55400;51.824;-0.196;2023-04-23T05:00:43;7.10;;;2.30;;
68144;SDS011;55400;51.824;-0.196;2023-04-23T05:04:43;6.80;;;2.10;;
68144;SDS011;55400;51.824;-0.196;2023-04-23T05:08:44;5.20;;;2.10;;
68144;SDS011;55400;51.824;-0.196;2023-04-23T05:12:43;5.80;;;2.10;;
68144;SDS011;55400;51.824;-0.196;2023-04-23T05:16:43;6.80;;;2.10;;
68144;SDS011;55400;51.824;-0.196;2023-04-23T05:20:43;6.90;;;2.10;;
68144;SDS011;55400;51.824;-0.196;2023-04-23T05:24:43;7.30;;;2.20;;
68144;SDS011;55400;51.824;-0.196;2023-04-23T05:28:43;7.50;;;2.10;;
68144;SDS011;55400;51.824;-0.196;2023-04-23T05:32:43;6.30;;;1.90;;
68144;SDS011;55400;51.824;-0.196;2023-04-23T05:36:43;6.60;;;2.20;;
68144;SDS011;55400;51.824;-0.196;2023-04-23T05:40:44;6.70;;;2.00;;
68144;SDS011;55400;51.824;-0.196;2023-04-23T05:44:43;7.10;;;2.20;;
68144;SDS011;55400;51.824;-0.196;2023-04-23T05:48:43;6.10;;;1.90;;
68144;SDS011;55400;51.824;-0.196;2023-04-23T05:56:43;6.80;;;2.20;;
68144;SDS011;55400;51.824;-0.196;2023-04-23T06:00:43;5.60;;;2.00;;
68144;SDS011;55400;51.824;-0.196;2023-04-23T06:08:44;6.30;;;2.40;;
68144;SDS011;55400;51.824;-0.196;2023-04-23T06:12:43;7.20;;;1.90;;
68144;SDS011;55400;51.824;-0.196;2023-04-23T06:16:44;6.90;;;1.90;;
68144;SDS011;55400;51.824;-0.196;2023-04-23T06:20:43;7.40;;;2.30;;
68144;SDS011;55400;51.824;-0.196;2023-04-23T06:24:44;5.60;;;2.00;;
68144;SDS011;55400;51.824;-0.196;2023-04-23T06:28:44;7.10;;;2.00;;
68144;SDS011;55400;51.824;-0.196;2023-04-23T06:32:43;6.70;;;2.50;;
68144;SDS011;55400;51.824;-0.196;2023-04-23T06:36:43;4.80;;;2.00;;
68144;SDS011;55400;51.824;-0.196;2023-04-23T06:40:43;6.50;;;2.00;;
68144;SDS011;55400;51.824;-0.196;2023-04-23T06:44:43;6.90;;;2.40;;
68144;SDS011;55400;51.824;-0.196;2023-04-23T06:48:44;7.20;;;1.90;;
68144;SDS011;55400;51.824;-0.196;2023-04-23T06:52:43;5.20;;;1.80;;
68144;SDS011;55400;51.824;-0.196;2023-04-23T06:56:44;7.00;;;2.20;;
68144;SDS011;55400;51.824;-0.196;2023-04-23T07:00:44;4.90;;;1.90;;
68144;SDS011;55400;51.824;-0.196;2023-04-23T07:04:44;5.20;;;2.10;;
68144;SDS011;55400;51.824;-0.196;2023-04-23T07:08:43;4.40;;;2.00;;
68144;SDS011;55400;51.824;-0.196;2023-04-23T07:12:44;4.20;;;1.90;;
68144;SDS011;55400;51.824;-0.196;2023-04-23T07:16:43;5.50;;;1.90;;
68144;SDS011;55400;51.824;-0.196;2023-04-23T07:20:44;6.50;;;1.90;;
68144;SDS011;55400;51.824;-0.196;2023-04-23T07:28:44;5.70;;;2.00;;
68144;SDS011;55400;51.824;-0.196;2023-04-23T07:32:44;3.00;;;1.80;;
68144;SDS011;55400;51.824;-0.196;2023-04-23T07:36:44;5.70;;;1.90;;
68144;SDS011;55400;51.824;-0.196;2023-04-23T07:40:44;5.40;;;2.20;;
68144;SDS011;55400;51.824;-0.196;2023-04-23T07:44:44;6.50;;;2.50;;
68144;SDS011;55400;51.824;-0.196;2023-04-23T07:52:44;5.00;;;1.70;;
68144;SDS011;55400;51.824;-0.196;2023-04-23T07:56:44;5.60;;;1.90;;
68144;SDS011;55400;51.824;-0.196;2023-04-23T08:00:44;4.70;;;2.00;;
68144;SDS011;55400;51.824;-0.196;2023-04-23T08:04:44;4.70;;;2.00;;
68144;SDS011;55400;51.824;-0.196;2023-04-23T08:08:44;5.20;;;1.80;;
68144;SDS011;55400;51.824;-0.196;2023-04-23T08:12:44;5.10;;;2.00;;
68144;SDS011;55400;51.824;-0.196;2023-04-23T08:16:44;3.70;;;2.10;;
68144;SDS011;55400;51.824;-0.196;2023-04-23T08:20:44;4.70;;;1.90;;
68144;SDS011;55400;51.824;-0.196;2023-04-23T08:24:44;4.10;;;2.00;;
68144;SDS011;55400;51.824;-0.196;2023-04-23T08:28:45;3.90;;;1.70;;
68144;SDS011;55400;51.824;-0.196;2023-04-23T08:32:48;4.40;;;2.10;;
68144;SDS011;55400;51.824;-0.196;2023-04-23T08:36:44;4.70;;;2.00;;
68144;SDS011;55400;51.824;-0.196;2023-04-23T08:40:44;5.00;;;2.10;;
68144;SDS011;55400;51.824;-0.196;2023-04-23T08:44:45;2.70;;;1.80;;
68144;SDS011;55400;51.824;-0.196;2023-04-23T08:48:44;3.90;;;1.80;;
68144;SDS011;55400;51.824;-0.196;2023-04-23T08:52:46;6.50;;;2.10;;
68144;SDS011;55400;51.824;-0.196;2023-04-23T08:56:45;3.70;;;1.90;;
68144;SDS011;55400;51.824;-0.196;2023-04-23T09:00:44;4.50;;;2.00;;
68144;SDS011;55400;51.824;-0.196;2023-04-23T09:04:44;3.70;;;1.90;;
68144;SDS011;55400;51.824;-0.196;2023-04-23T09:08:44;8.10;;;1.80;;
68144;SDS011;55400;51.824;-0.196;2023-04-23T09:12:44;3.40;;;1.90;;
68144;SDS011;55400;51.824;-0.196;2023-04-23T09:16:44;4.00;;;2.00;;
68144;SDS011;55400;51.824;-0.196;2023-04-23T09:20:44;6.10;;;2.00;;
68144;SDS011;55400;51.824;-0.196;2023-04-23T09:28:47;5.00;;;2.10;;
68144;SDS011;55400;51.824;-0.196;2023-04-23T09:32:45;3.10;;;1.70;;
68144;SDS011;55400;51.824;-0.196;2023-04-23T09:36:45;3.60;;;1.80;;
68144;SDS011;55400;51.824;-0.196;2023-04-23T09:40:44;5.30;;;2.00;;
68144;SDS011;55400;51.824;-0.196;2023-04-23T09:44:44;4.10;;;2.00;;
68144;SDS011;55400;51.824;-0.196;2023-04-23T09:48:44;3.80;;;2.10;;
68144;SDS011;55400;51.824;-0.196;2023-04-23T09:52:44;3.70;;;1.80;;
68144;SDS011;55400;51.824;-0.196;2023-04-23T09:56:48;4.90;;;2.00;;
68144;SDS011;55400;51.824;-0.196;2023-04-23T10:00:44;4.60;;;2.20;;
68144;SDS011;55400;51.824;-0.196;2023-04-23T10:04:49;8.50;;;2.80;;
68144;SDS011;55400;51.824;-0.196;2023-04-23T10:08:45;4.50;;;2.00;;
68144;SDS011;55400;51.824;-0.196;2023-04-23T10:16:45;5.20;;;2.30;;
68144;SDS011;55400;51.824;-0.196;2023-04-23T10:20:44;5.00;;;2.00;;
68144;SDS011;55400;51.824;-0.196;2023-04-23T10:24:45;3.40;;;2.10;;
68144;SDS011;55400;51.824;-0.196;2023-04-23T10:28:46;5.00;;;2.50;;
68144;SDS011;55400;51.824;-0.196;2023-04-23T10:32:47;3.20;;;2.10;;
68144;SDS011;55400;51.824;-0.196;2023-04-23T10:36:44;2.90;;;2.60;;
68144;SDS011;55400;51.824;-0.196;2023-04-23T10:40:46;2.60;;;2.30;;
68144;SDS011;55400;51.824;-0.196;2023-04-23T10:44:44;2.30;;;2.00;;
68144;SDS011;55400;51.824;-0.196;2023-04-23T10:49:04;2.80;;;2.60;;
68144;SDS011;55400;51.824;-0.196;2023-04-23T10:52:44;3.50;;;2.90;;
68144;SDS011;55400;51.824;-0.196;2023-04-23T10:56:44;2.90;;;2.60;;
68144;SDS011;55400;51.824;-0.196;2023-04-23T11:00:45;2.40;;;1.70;;
68144;SDS011;55400;51.824;-0.196;2023-04-23T11:04:46;1.70;;;1.60;;
68144;SDS011;55400;51.824;-0.196;2023-04-23T11:08:52;2.00;;;1.80;;
68144;SDS011;55400;51.824;-0.196;2023-04-23T11:12:44;2.30;;;1.70;;
68144;SDS011;55400;51.824;-0.196;2023-04-23T11:16:44;2.20;;;1.80;;
68144;SDS011;55400;51.824;-0.196;2023-04-23T11:20:46;3.40;;;2.20;;
68144;SDS011;55400;51.824;-0.196;2023-04-23T11:24:45;5.30;;;2.40;;
68144;SDS011;55400;51.824;-0.196;2023-04-23T11:28:46;2.80;;;2.40;;
68144;SDS011;55400;51.824;-0.196;2023-04-23T11:32:45;4.60;;;2.60;;
68144;SDS011;55400;51.824;-0.196;2023-04-23T11:36:45;2.90;;;2.60;;
68144;SDS011;55400;51.824;-0.196;2023-04-23T11:40:45;3.30;;;2.90;;
68144;SDS011;55400;51.824;-0.196;2023-04-23T11:44:45;5.50;;;3.00;;
68144;SDS011;55400;51.824;-0.196;2023-04-23T11:48:44;3.10;;;2.80;;
68144;SDS011;55400;51.824;-0.196;2023-04-23T11:52:45;3.70;;;3.10;;
68144;SDS011;55400;51.824;-0.196;2023-04-23T11:56:44;4.10;;;3.20;;
68144;SDS011;55400;51.824;-0.196;2023-04-23T12:00:44;3.90;;;3.30;;
68144;SDS011;55400;51.824;-0.196;2023-04-23T12:04:44;3.40;;;3.00;;
68144;SDS011;55400;51.824;-0.196;2023-04-23T12:08:45;5.30;;;3.60;;
68144;SDS011;55400;51.824;-0.196;2023-04-23T12:12:48;3.30;;;3.00;;
68144;SDS011;55400;51.824;-0.196;2023-04-23T12:16:46;4.50;;;3.40;;
68144;SDS011;55400;51.824;-0.196;2023-04-23T12:20:44;4.40;;;3.40;;
68144;SDS011;55400;51.824;-0.196;2023-04-23T12:24:46;4.80;;;3.50;;
68144;SDS011;55400;51.824;-0.196;2023-04-23T12:28:45;3.50;;;3.00;;
68144;SDS011;55400;51.824;-0.196;2023-04-23T12:32:44;5.20;;;3.30;;
68144;SDS011;55400;51.824;-0.196;2023-04-23T12:36:48;3.60;;;2.90;;
68144;SDS011;55400;51.824;-0.196;2023-04-23T12:40:45;3.30;;;2.90;;
68144;SDS011;55400;51.824;-0.196;2023-04-23T12:44:44;3.90;;;2.80;;
68144;SDS011;55400;51.824;-0.196;2023-04-23T12:52:45;3.80;;;2.90;;
68144;SDS011;55400;51.824;-0.196;2023-04-23T13:00:44;4.00;;;3.10;;
68144;SDS011;55400;51.824;-0.196;2023-04-23T13:04:44;4.60;;;3.10;;
68144;SDS011;55400;51.824;-0.196;2023-04-23T13:08:45;3.50;;;2.60;;
68144;SDS011;55400;51.824;-0.196;2023-04-23T13:12:44;3.10;;;2.70;;
68144;SDS011;55400;51.824;-0.196;2023-04-23T13:16:45;3.50;;;3.00;;
68144;SDS011;55400;51.824;-0.196;2023-04-23T13:20:44;3.50;;;2.80;;
68144;SDS011;55400;51.824;-0.196;2023-04-23T13:24:45;4.50;;;3.00;;
68144;SDS011;55400;51.824;-0.196;2023-04-23T13:28:45;4.00;;;3.50;;
68144;SDS011;55400;51.824;-0.196;2023-04-23T13:32:45;4.80;;;3.70;;
68144;SDS011;55400;51.824;-0.196;2023-04-23T13:36:45;5.60;;;3.60;;
68144;SDS011;55400;51.824;-0.196;2023-04-23T13:40:45;5.00;;;3.60;;
68144;SDS011;55400;51.824;-0.196;2023-04-23T13:44:45;5.00;;;3.70;;
68144;SDS011;55400;51.824;-0.196;2023-04-23T13:48:45;4.90;;;3.30;;
68144;SDS011;55400;51.824;-0.196;2023-04-23T13:52:45;4.30;;;3.40;;
68144;SDS011;55400;51.824;-0.196;2023-04-23T13:56:45;4.50;;;3.30;;
68144;SDS011;55400;51.824;-0.196;2023-04-23T14:00:45;5.00;;;3.80;;
68144;SDS011;55400;51.824;-0.196;2023-04-23T14:04:45;6.40;;;4.00;;
68144;SDS011;55400;51.824;-0.196;2023-04-23T14:08:45;5.40;;;4.10;;
68144;SDS011;55400;51.824;-0.196;2023-04-23T14:12:45;7.40;;;4.30;;
68144;SDS011;55400;51.824;-0.196;2023-04-23T14:16:45;6.10;;;4.00;;
68144;SDS011;55400;51.824;-0.196;2023-04-23T14:20:45;8.90;;;4.40;;
68144;SDS011;55400;51.824;-0.196;2023-04-23T14:24:49;5.00;;;4.20;;
68144;SDS011;55400;51.824;-0.196;2023-04-23T14:28:45;5.90;;;4.40;;
68144;SDS011;55400;51.824;-0.196;2023-04-23T14:32:45;5.20;;;4.00;;
68144;SDS011;55400;51.824;-0.196;2023-04-23T14:36:45;5.30;;;3.80;;
68144;SDS011;55400;51.824;-0.196;2023-04-23T14:44:45;5.70;;;3.80;;
68144;SDS011;55400;51.824;-0.196;2023-04-23T14:48:45;5.40;;;3.60;;
68144;SDS011;55400;51.824;-0.196;2023-04-23T14:52:47;5.10;;;3.90;;
68144;SDS011;55400;51.824;-0.196;2023-04-23T14:56:45;6.10;;;4.40;;
68144;SDS011;55400;51.824;-0.196;2023-04-23T15:00:45;5.80;;;3.70;;
68144;SDS011;55400;51.824;-0.196;2023-04-23T15:04:45;5.30;;;4.10;;
68144;SDS011;55400;51.824;-0.196;2023-04-23T15:08:45;7.00;;;4.00;;
68144;SDS011;55400;51.824;-0.196;2023-04-23T15:12:53;4.80;;;3.80;;
68144;SDS011;55400;51.824;-0.196;2023-04-23T15:16:45;5.70;;;4.20;;
68144;SDS011;55400;51.824;-0.196;2023-04-23T15:20:45;5.90;;;4.00;;
68144;SDS011;55400;51.824;-0.196;2023-04-23T15:24:45;6.00;;;4.10;;
68144;SDS011;55400;51.824;-0.196;2023-04-23T15:28:45;5.90;;;3.70;;
68144;SDS011;55400;51.824;-0.196;2023-04-23T15:32:45;5.10;;;3.50;;
68144;SDS011;55400;51.824;-0.196;2023-04-23T15:36:45;4.20;;;3.50;;
68144;SDS011;55400;51.824;-0.196;2023-04-23T15:40:45;6.00;;;4.00;;
68144;SDS011;55400;51.824;-0.196;2023-04-23T15:44:47;4.50;;;4.00;;
68144;SDS011;55400;51.824;-0.196;2023-04-23T15:48:45;5.80;;;4.50;;
68144;SDS011;55400;51.824;-0.196;2023-04-23T15:56:45;4.70;;;4.20;;
68144;SDS011;55400;51.824;-0.196;2023-04-23T16:00:45;5.70;;;4.20;;
68144;SDS011;55400;51.824;-0.196;2023-04-23T16:04:45;4.60;;;4.10;;
68144;SDS011;55400;51.824;-0.196;2023-04-23T16:08:45;4.60;;;3.90;;
68144;SDS011;55400;51.824;-0.196;2023-04-23T16:12:45;4.10;;;3.70;;
68144;SDS011;55400;51.824;-0.196;2023-04-23T16:16:45;5.10;;;4.00;;
68144;SDS011;55400;51.824;-0.196;2023-04-23T16:20:45;5.30;;;4.10;;
68144;SDS011;55400;51.824;-0.196;2023-04-23T16:24:45;4.70;;;4.10;;
68144;SDS011;55400;51.824;-0.196;2023-04-23T16:28:45;6.80;;;6.00;;
68144;SDS011;55400;51.824;-0.196;2023-04-23T16:32:45;6.60;;;5.80;;
68144;SDS011;55400;51.824;-0.196;2023-04-23T16:36:45;6.50;;;5.80;;
68144;SDS011;55400;51.824;-0.196;2023-04-23T16:40:45;5.80;;;5.20;;
68144;SDS011;55400;51.824;-0.196;2023-04-23T16:44:45;5.70;;;4.40;;
68144;SDS011;55400;51.824;-0.196;2023-04-23T16:48:45;6.80;;;4.30;;
68144;SDS011;55400;51.824;-0.196;2023-04-23T16:52:45;5.50;;;3.80;;
68144;SDS011;55400;51.824;-0.196;2023-04-23T16:56:45;4.80;;;3.80;;
68144;SDS011;55400;51.824;-0.196;2023-04-23T17:00:45;3.80;;;3.40;;
68144;SDS011;55400;51.824;-0.196;2023-04-23T17:04:45;3.40;;;3.10;;
68144;SDS011;55400;51.824;-0.196;2023-04-23T17:08:45;4.20;;;3.80;;
68144;SDS011;55400;51.824;-0.196;2023-04-23T17:12:45;4.50;;;4.10;;
68144;SDS011;55400;51.824;-0.196;2023-04-23T17:16:45;5.70;;;4.80;;
68144;SDS011;55400;51.824;-0.196;2023-04-23T17:20:45;6.50;;;4.40;;
68144;SDS011;55400;51.824;-0.196;2023-04-23T17:24:45;5.60;;;4.80;;
68144;SDS011;55400;51.824;-0.196;2023-04-23T17:32:45;4.80;;;4.10;;
68144;SDS011;55400;51.824;-0.196;2023-04-23T17:36:45;5.60;;;4.30;;
68144;SDS011;55400;51.824;-0.196;2023-04-23T17:40:47;4.20;;;3.60;;
68144;SDS011;55400;51.824;-0.196;2023-04-23T17:44:45;5.10;;;4.20;;
68144;SDS011;55400;51.824;-0.196;2023-04-23T17:48:45;5.90;;;4.40;;
68144;SDS011;55400;51.824;-0.196;2023-04-23T17:52:45;6.40;;;4.70;;
68144;SDS011;55400;51.824;-0.196;2023-04-23T17:56:45;7.10;;;5.30;;
68144;SDS011;55400;51.824;-0.196;2023-04-23T18:00:46;7.50;;;5.80;;
68144;SDS011;55400;51.824;-0.196;2023-04-23T18:04:45;8.50;;;6.20;;
68144;SDS011;55400;51.824;-0.196;2023-04-23T18:08:45;7.80;;;5.80;;
68144;SDS011;55400;51.824;-0.196;2023-04-23T18:12:45;7.30;;;6.10;;
68144;SDS011;55400;51.824;-0.196;2023-04-23T18:16:45;6.70;;;5.30;;
68144;SDS011;55400;51.824;-0.196;2023-04-23T18:24:46;6.10;;;4.60;;
68144;SDS011;55400;51.824;-0.196;2023-04-23T18:28:45;5.30;;;4.40;;
68144;SDS011;55400;51.824;-0.196;2023-04-23T18:36:48;5.40;;;4.20;;
68144;SDS011;55400;51.824;-0.196;2023-04-23T18:40:45;7.30;;;5.00;;
68144;SDS011;55400;51.824;-0.196;2023-04-23T18:44:46;6.60;;;4.90;;
68144;SDS011;55400;51.824;-0.196;2023-04-23T18:48:50;9.50;;;6.50;;
68144;SDS011;55400;51.824;-0.196;2023-04-23T18:52:46;11.70;;;7.50;;
68144;SDS011;55400;51.824;-0.196;2023-04-23T18:56:46;10.60;;;7.30;;
68144;SDS011;55400;51.824;-0.196;2023-04-23T19:00:46;9.70;;;7.20;;
68144;SDS011;55400;51.824;-0.196;2023-04-23T19:04:45;12.00;;;7.50;;
68144;SDS011;55400;51.824;-0.196;2023-04-23T19:08:46;9.70;;;7.60;;
68144;SDS011;55400;51.824;-0.196;2023-04-23T19:12:45;12.10;;;7.90;;
68144;SDS011;55400;51.824;-0.196;2023-04-23T19:16:46;12.00;;;8.70;;
68144;SDS011;55400;51.824;-0.196;2023-04-23T19:20:46;12.90;;;8.70;;
68144;SDS011;55400;51.824;-0.196;2023-04-23T19:24:46;10.20;;;8.10;;
68144;SDS011;55400;51.824;-0.196;2023-04-23T19:28:45;13.60;;;8.50;;
68144;SDS011;55400;51.824;-0.196;2023-04-23T19:32:46;12.70;;;8.70;;
68144;SDS011;55400;51.824;-0.196;2023-04-23T19:36:46;11.60;;;9.00;;
68144;SDS011;55400;51.824;-0.196;2023-04-23T19:40:46;14.20;;;9.00;;
68144;SDS011;55400;51.824;-0.196;2023-04-23T19:44:46;14.50;;;9.70;;
68144;SDS011;55400;51.824;-0.196;2023-04-23T19:48:46;14.70;;;9.60;;
68144;SDS011;55400;51.824;-0.196;2023-04-23T19:52:46;15.10;;;10.00;;
68144;SDS011;55400;51.824;-0.196;2023-04-23T20:00:46;14.90;;;10.80;;
68144;SDS011;55400;51.824;-0.196;2023-04-23T20:04:46;14.70;;;10.50;;
68144;SDS011;55400;51.824;-0.196;2023-04-23T20:08:46;16.20;;;10.30;;
68144;SDS011;55400;51.824;-0.196;2023-04-23T20:12:46;15.10;;;10.60;;
68144;SDS011;55400;51.824;-0.196;2023-04-23T20:16:46;16.00;;;11.10;;
68144;SDS011;55400;51.824;-0.196;2023-04-23T20:20:46;13.00;;;10.30;;
68144;SDS011;55400;51.824;-0.196;2023-04-23T20:24:46;16.00;;;11.60;;
68144;SDS011;55400;51.824;-0.196;2023-04-23T20:28:46;16.00;;;10.90;;
68144;SDS011;55400;51.824;-0.196;2023-04-23T20:32:46;16.00;;;11.10;;
68144;SDS011;55400;51.824;-0.196;2023-04-23T20:40:46;16.20;;;10.60;;
68144;SDS011;55400;51.824;-0.196;2023-04-23T20:44:46;15.30;;;9.80;;
68144;SDS011;55400;51.824;-0.196;2023-04-23T20:48:46;12.10;;;8.80;;
68144;SDS011;55400;51.824;-0.196;2023-04-23T20:52:46;12.20;;;7.90;;
68144;SDS011;55400;51.824;-0.196;2023-04-23T20:56:46;10.80;;;7.50;;
68144;SDS011;55400;51.824;-0.196;2023-04-23T21:00:46;10.70;;;7.70;;
68144;SDS011;55400;51.824;-0.196;2023-04-23T21:04:46;12.60;;;7.80;;
68144;SDS011;55400;51.824;-0.196;2023-04-23T21:12:46;11.50;;;7.30;;
68144;SDS011;55400;51.824;-0.196;2023-04-23T21:16:46;10.40;;;7.30;;
68144;SDS011;55400;51.824;-0.196;2023-04-23T21:20:46;9.10;;;6.90;;
68144;SDS011;55400;51.824;-0.196;2023-04-23T21:24:46;9.00;;;6.80;;
68144;SDS011;55400;51.824;-0.196;2023-04-23T21:32:46;11.10;;;7.60;;
68144;SDS011;55400;51.824;-0.196;2023-04-23T21:36:48;9.60;;;7.40;;
68144;SDS011;55400;51.824;-0.196;2023-04-23T21:40:46;11.10;;;8.10;;
68144;SDS011;55400;51.824;-0.196;2023-04-23T21:44:46;10.10;;;7.00;;
68144;SDS011;55400;51.824;-0.196;2023-04-23T21:48:47;10.90;;;7.30;;
68144;SDS011;55400;51.824;-0.196;2023-04-23T21:52:46;10.80;;;6.90;;
68144;SDS011;55400;51.824;-0.196;2023-04-23T21:56:46;9.40;;;6.70;;
68144;SDS011;55400;51.824;-0.196;2023-04-23T22:00:46;8.60;;;6.50;;
68144;SDS011;55400;51.824;-0.196;2023-04-23T22:04:46;10.20;;;6.90;;
68144;SDS011;55400;51.824;-0.196;2023-04-23T22:08:46;11.90;;;7.10;;
68144;SDS011;55400;51.824;-0.196;2023-04-23T22:12:47;12.10;;;7.00;;
68144;SDS011;55400;51.824;-0.196;2023-04-23T22:16:46;10.10;;;6.70;;
68144;SDS011;55400;51.824;-0.196;2023-04-23T22:20:46;8.30;;;7.00;;
68144;SDS011;55400;51.824;-0.196;2023-04-23T22:24:46;11.20;;;7.20;;
68144;SDS011;55400;51.824;-0.196;2023-04-23T22:28:46;11.90;;;6.90;;
68144;SDS011;55400;51.824;-0.196;2023-04-23T22:32:46;12.70;;;7.70;;
68144;SDS011;55400;51.824;-0.196;2023-04-23T22:36:46;10.50;;;7.20;;
68144;SDS011;55400;51.824;-0.196;2023-04-23T22:40:46;11.00;;;7.40;;
68144;SDS011;55400;51.824;-0.196;2023-04-23T22:44:46;11.60;;;7.70;;
68144;SDS011;55400;51.824;-0.196;2023-04-23T22:48:46;10.40;;;7.50;;
68144;SDS011;55400;51.824;-0.196;2023-04-23T22:52:46;10.80;;;7.40;;
68144;SDS011;55400;51.824;-0.196;2023-04-23T22:56:46;10.50;;;7.30;;
68144;SDS011;55400;51.824;-0.196;2023-04-23T23:00:46;14.70;;;7.80;;
68144;SDS011;55400;51.824;-0.196;2023-04-23T23:04:46;11.90;;;8.40;;
68144;SDS011;55400;51.824;-0.196;2023-04-23T23:08:46;10.80;;;7.90;;
68144;SDS011;55400;51.824;-0.196;2023-04-23T23:12:47;11.50;;;8.70;;
68144;SDS011;55400;51.824;-0.196;2023-04-23T23:16:46;13.80;;;9.70;;
68144;SDS011;55400;51.824;-0.196;2023-04-23T23:20:46;11.30;;;8.90;;
68144;SDS011;55400;51.824;-0.196;2023-04-23T23:24:46;11.40;;;9.00;;
68144;SDS011;55400;51.824;-0.196;2023-04-23T23:28:46;11.80;;;8.80;;
68144;SDS011;55400;51.824;-0.196;2023-04-23T23:32:46;11.30;;;9.20;;
68144;SDS011;55400;51.824;-0.196;2023-04-23T23:36:46;13.00;;;9.60;;
68144;SDS011;55400;51.824;-0.196;2023-04-23T23:40:46;11.00;;;9.10;;
68144;SDS011;55400;51.824;-0.196;2023-04-23T23:44:46;11.70;;;9.60;;
68144;SDS011;55400;51.824;-0.196;2023-04-23T23:48:46;11.70;;;9.50;;
68144;SDS011;55400;51.824;-0.196;2023-04-23T23:52:46;12.80;;;10.00;;
68144;SDS011;55400;51.824;-0.196;2023-04-23T23:56:46;13.30;;;9.20;;
